Time;durP1;ratioP1;P1;durP2;ratioP2;P2;SDS_P1;SDS_P2;PMS_P1;PMS_P2;Temp;Humidity;BMP_temperature;BMP_pressure;BME280_temperature;BME280_humidity;BME280_pressure;Samples;Min_cycle;Max_cycle;Signal;HPM_P1;HPM_P2
2023/10/25 00:01:35;;;;;;;5.65;2.42;;;;;;;10.48;100.00;99310.88;8271985;28;20530;-60
2023/10/25 00:05:35;;;;;;;7.68;2.00;;;;;;;10.49;100.00;99309.88;8278594;28;20037;-60
2023/10/25 00:09:36;;;;;;;5.13;1.95;;;;;;;10.56;100.00;99313.56;8278262;28;20335;-60
2023/10/25 00:13:36;;;;;;;3.53;1.80;;;;;;;10.60;100.00;99315.78;8275481;28;20155;-60
2023/10/25 00:17:37;;;;;;;2.38;1.73;;;;;;;10.59;100.00;99302.44;8284062;28;20444;-60
2023/10/25 00:21:37;;;;;;;3.30;1.70;;;;;;;10.57;100.00;99310.69;8287004;28;20037;-58
2023/10/25 00:25:38;;;;;;;6.70;1.90;;;;;;;10.57;100.00;99308.00;8337997;28;20417;-58
2023/10/25 00:29:38;;;;;;;8.25;1.85;;;;;;;10.56;100.00;99298.22;8336654;28;20045;-58
2023/10/25 00:33:39;;;;;;;5.55;1.90;;;;;;;10.51;100.00;99299.72;8286014;28;20540;-60
2023/10/25 00:37:39;;;;;;;4.85;1.73;;;;;;;10.52;100.00;99313.06;8284050;28;20046;-60
2023/10/25 00:41:40;;;;;;;2.40;1.77;;;;;;;10.50;100.00;99312.41;8284002;28;20057;-60
2023/10/25 00:46:05;;;;;;;5.30;1.80;;;;;;;10.50;100.00;99315.09;8282743;28;20790;-60
2023/10/25 00:50:07;;;;;;;4.60;1.90;;;;;;;10.51;100.00;99307.81;8276993;28;20275;-60
2023/10/25 00:54:09;;;;;;;5.00;2.33;;;;;;;10.57;100.00;99310.69;8282050;28;20543;-60
2023/10/25 00:58:10;;;;;;;10.40;2.38;;;;;;;10.57;100.00;99310.69;8282181;28;20434;-60
2023/10/25 01:02:12;;;;;;;2.90;1.50;;;;;;;10.68;100.00;99296.00;8339563;28;20045;-59
2023/10/25 01:06:12;;;;;;;3.55;2.10;;;;;;;10.77;100.00;99301.19;8334608;28;20057;-59
2023/10/25 01:10:13;;;;;;;4.60;2.17;;;;;;;10.72;100.00;99289.22;8332678;28;20061;-59
2023/10/25 01:14:14;;;;;;;6.50;1.98;;;;;;;10.68;100.00;99275.22;8336121;28;20049;-58
2023/10/25 01:18:16;;;;;;;6.63;2.25;;;;;;;10.65;100.00;99275.56;8335043;28;20044;-59
2023/10/25 01:22:16;;;;;;;4.43;1.95;;;;;;;10.63;100.00;99283.00;8333252;28;20037;-59
2023/10/25 01:26:17;;;;;;;4.60;1.75;;;;;;;10.67;100.00;99283.50;8337066;28;20037;-59
2023/10/25 01:30:17;;;;;;;3.22;1.73;;;;;;;10.70;100.00;99273.19;8335673;28;20534;-59
2023/10/25 01:34:18;;;;;;;5.88;1.80;;;;;;;10.71;100.00;99258.66;8334333;28;20040;-59
2023/10/25 01:38:20;;;;;;;4.70;1.60;;;;;;;10.71;100.00;99261.38;8336821;28;20041;-59
2023/10/25 01:42:20;;;;;;;4.43;1.85;;;;;;;10.75;100.00;99265.41;8330876;28;20128;-59
2023/10/25 01:46:21;;;;;;;6.28;2.03;;;;;;;10.62;100.00;99254.28;8335074;28;20049;-59
2023/10/25 01:50:21;;;;;;;6.75;2.05;;;;;;;10.58;100.00;99247.53;8332026;28;20302;-59
2023/10/25 01:54:22;;;;;;;5.38;2.03;;;;;;;10.67;100.00;99251.09;8334347;28;20040;-59
2023/10/25 01:58:22;;;;;;;5.93;2.20;;;;;;;10.65;100.00;99237.75;8332870;28;20052;-59
2023/10/25 02:02:23;;;;;;;4.53;2.00;;;;;;;10.59;100.00;99233.03;8297689;28;20079;-60
2023/10/25 02:06:24;;;;;;;5.75;2.78;;;;;;;10.49;100.00;99229.63;8282338;28;20048;-61
2023/10/25 02:10:24;;;;;;;3.83;1.98;;;;;;;10.51;100.00;99219.50;8279001;28;20076;-61
2023/10/25 02:14:25;;;;;;;8.20;2.28;;;;;;;10.61;100.00;99209.34;8279701;28;20431;-61
2023/10/25 02:18:25;;;;;;;3.15;2.33;;;;;;;10.59;100.00;99210.53;8277306;28;20212;-60
2023/10/25 02:22:26;;;;;;;6.97;1.98;;;;;;;10.66;100.00;99212.38;8278678;28;20428;-60
2023/10/25 02:26:27;;;;;;;4.05;1.80;;;;;;;10.68;100.00;99204.97;8271431;28;20551;-61
2023/10/25 02:30:27;;;;;;;6.53;1.90;;;;;;;10.77;100.00;99195.78;8304068;28;20044;-61
2023/10/25 02:34:29;;;;;;;5.28;1.70;;;;;;;10.84;100.00;99194.09;8337232;28;20056;-61
2023/10/25 02:38:29;;;;;;;6.07;2.58;;;;;;;10.81;100.00;99194.44;8336802;28;20047;-61
2023/10/25 02:42:30;;;;;;;9.38;1.85;;;;;;;10.68;100.00;99188.75;8335166;28;20044;-61
2023/10/25 02:46:30;;;;;;;6.30;2.00;;;;;;;10.72;100.00;99190.06;8337088;28;20061;-61
2023/10/25 02:50:31;;;;;;;6.30;1.83;;;;;;;10.71;100.00;99188.41;8336209;28;20055;-61
2023/10/25 02:54:31;;;;;;;6.75;2.00;;;;;;;10.55;100.00;99183.00;8334441;28;20128;-61
2023/10/25 02:58:33;;;;;;;6.43;2.35;;;;;;;10.40;100.00;99176.63;8333173;28;20044;-61
2023/10/25 03:02:33;;;;;;;5.05;2.10;;;;;;;10.48;100.00;99175.78;8338176;28;20131;-59
2023/10/25 03:06:34;;;;;;;7.07;2.10;;;;;;;10.52;100.00;99177.97;8338765;28;20033;-59
2023/10/25 03:10:34;;;;;;;5.90;2.17;;;;;;;10.57;100.00;99178.28;8336037;28;20070;-58
2023/10/25 03:14:34;;;;;;;5.18;2.35;;;;;;;10.59;100.00;99173.56;8333981;28;20038;-59
2023/10/25 03:18:35;;;;;;;5.25;1.88;;;;;;;10.56;100.00;99173.91;8326849;28;20049;-60
2023/10/25 03:22:36;;;;;;;10.13;2.80;;;;;;;10.34;100.00;99160.28;8341573;28;20029;-60
2023/10/25 03:26:36;;;;;;;5.57;2.58;;;;;;;10.30;100.00;99164.31;8338363;28;20098;-60
2023/10/25 03:30:37;;;;;;;6.53;2.28;;;;;;;10.22;100.00;99157.13;8296610;28;20520;-61
2023/10/25 03:34:37;;;;;;;5.38;2.90;;;;;;;10.22;100.00;99154.41;8290317;28;20037;-60
2023/10/25 03:38:38;;;;;;;3.80;2.58;;;;;;;10.17;100.00;99150.53;8286344;28;20033;-60
2023/10/25 03:42:39;;;;;;;8.45;3.53;;;;;;;10.27;100.00;99152.03;8281517;28;20259;-60
2023/10/25 03:46:39;;;;;;;7.85;2.45;;;;;;;10.29;100.00;99141.91;8282872;28;20281;-60
2023/10/25 03:50:42;;;;;;;10.07;3.53;;;;;;;10.35;100.00;99138.50;8280375;28;20462;-60
2023/10/25 03:54:42;;;;;;;9.85;3.30;;;;;;;10.45;100.00;99141.84;8283433;28;20041;-60
2023/10/25 03:58:43;;;;;;;5.85;2.97;;;;;;;10.45;100.00;99136.44;8327963;28;20037;-60
2023/10/25 04:02:43;;;;;;;7.22;3.08;;;;;;;10.41;100.00;99126.16;8344711;28;20463;-60
2023/10/25 04:06:44;;;;;;;6.88;3.28;;;;;;;10.45;100.00;99122.94;8342638;28;20052;-60
2023/10/25 04:10:55;;;;;;;7.97;4.43;;;;;;;10.40;100.00;99119.91;8351978;28;20032;-60
2023/10/25 04:14:55;;;;;;;5.82;3.55;;;;;;;10.37;100.00;99111.31;8340667;28;20462;-61
2023/10/25 04:18:56;;;;;;;10.50;4.90;;;;;;;10.39;100.00;99107.41;8341830;28;20029;-61
2023/10/25 04:22:57;;;;;;;8.13;5.53;;;;;;;10.44;100.00;99118.56;8340499;28;20530;-61
2023/10/25 04:26:59;;;;;;;14.38;7.55;;;;;;;10.41;100.00;99116.22;8341046;28;20038;-61
2023/10/25 04:31:00;;;;;;;18.23;9.10;;;;;;;10.39;100.00;99101.16;8349201;28;20036;-61
2023/10/25 04:35:01;;;;;;;16.73;9.13;;;;;;;10.34;100.00;99093.59;8343290;28;20048;-61
2023/10/25 04:39:01;;;;;;;13.43;7.57;;;;;;;10.32;100.00;99092.09;8357511;28;20041;-61
2023/10/25 04:43:02;;;;;;;9.93;6.65;;;;;;;10.32;100.00;99083.97;8345234;28;20077;-59
2023/10/25 04:47:02;;;;;;;9.35;5.07;;;;;;;10.28;100.00;99078.06;8355985;28;20117;-59
2023/10/25 04:51:05;;;;;;;11.48;5.35;;;;;;;10.26;100.00;99079.28;8357565;28;20037;-59
2023/10/25 04:55:06;;;;;;;9.07;5.28;;;;;;;10.25;100.00;99073.06;8372627;28;20135;-59
2023/10/25 04:59:06;;;;;;;6.72;4.85;;;;;;;10.25;100.00;99073.06;8368974;28;20399;-60
2023/10/25 05:03:10;;;;;;;9.32;5.53;;;;;;;10.27;100.00;99065.59;8341827;28;20033;-60
2023/10/25 05:07:11;;;;;;;11.00;6.25;;;;;;;10.31;100.00;99064.22;8338713;28;20045;-59
2023/10/25 05:11:16;;;;;;;9.75;5.50;;;;;;;10.25;100.00;99054.16;8340244;28;20045;-60
2023/10/25 05:15:18;;;;;;;15.23;5.80;;;;;;;10.20;100.00;99053.81;8341485;28;20041;-61
2023/10/25 05:19:19;;;;;;;10.98;5.43;;;;;;;10.25;100.00;99035.25;8335352;28;20064;-61
2023/10/25 05:23:20;;;;;;;12.23;5.43;;;;;;;10.34;100.00;99027.94;8339129;28;20133;-60
2023/10/25 05:27:21;;;;;;;16.33;5.03;;;;;;;10.52;100.00;99021.25;8339743;28;20041;-61
2023/10/25 05:31:22;;;;;;;11.30;5.38;;;;;;;10.56;100.00;99022.59;8335824;28;20049;-59
2023/10/25 05:35:23;;;;;;;8.52;4.32;;;;;;;10.67;100.00;99024.88;8335471;28;20041;-60
2023/10/25 05:39:24;;;;;;;6.60;4.22;;;;;;;10.70;100.00;99018.31;8337878;28;20155;-59
2023/10/25 05:43:28;;;;;;;11.15;4.75;;;;;;;10.62;100.00;99016.50;8337074;28;20041;-60
2023/10/25 05:47:29;;;;;;;6.78;4.00;;;;;;;10.74;100.00;99009.63;8338899;28;20053;-58
2023/10/25 05:51:29;;;;;;;8.52;3.45;;;;;;;10.78;100.00;99000.16;8331917;28;20041;-60
2023/10/25 05:55:31;;;;;;;10.07;3.22;;;;;;;10.89;100.00;98999.72;8334482;28;21347;-60
2023/10/25 05:59:32;;;;;;;7.57;4.28;;;;;;;10.79;100.00;98990.16;8338928;28;20665;-61
2023/10/25 06:03:35;;;;;;;5.38;2.75;;;;;;;10.73;100.00;98985.50;8339462;28;20085;-61
2023/10/25 06:07:35;;;;;;;7.13;3.15;;;;;;;10.74;100.00;98977.19;8338517;28;20041;-61
2023/10/25 06:11:38;;;;;;;5.32;2.40;;;;;;;10.82;100.00;98968.19;8336701;28;20069;-61
2023/10/25 06:15:38;;;;;;;6.40;2.70;;;;;;;10.80;100.00;98964.84;8336727;28;20125;-60
2023/10/25 06:19:40;;;;;;;5.20;3.03;;;;;;;10.91;100.00;98954.44;8336066;28;20482;-59
2023/10/25 06:23:40;;;;;;;5.95;2.90;;;;;;;10.88;100.00;98952.09;8336095;28;20037;-61
2023/10/25 06:27:41;;;;;;;7.68;4.43;;;;;;;10.96;100.00;98937.69;8337205;28;20045;-60
2023/10/25 06:31:41;;;;;;;13.20;5.07;;;;;;;11.17;100.00;98930.56;8338430;28;20033;-59
2023/10/25 06:35:43;;;;;;;11.10;5.22;;;;;;;11.15;100.00;98929.06;8337497;28;20052;-59
2023/10/25 06:39:44;;;;;;;12.30;5.18;;;;;;;11.23;100.00;98929.00;8335432;28;20061;-59
2023/10/25 06:43:45;;;;;;;19.58;10.07;;;;;;;11.15;100.00;98910.97;8337294;28;20037;-59
2023/10/25 06:47:46;;;;;;;18.67;8.40;;;;;;;11.12;100.00;98911.34;8333932;28;20037;-58
2023/10/25 06:51:47;;;;;;;8.30;4.70;;;;;;;11.23;100.00;98905.47;8334726;28;20037;-62
2023/10/25 06:55:47;;;;;;;7.43;4.10;;;;;;;11.41;100.00;98894.31;8337898;28;20033;-62
2023/10/25 06:59:48;;;;;;;6.05;3.60;;;;;;;11.36;100.00;98886.75;8336888;28;20120;-62
2023/10/25 07:03:49;;;;;;;8.05;3.72;;;;;;;11.45;100.00;98874.81;8337317;28;20112;-62
2023/10/25 07:07:51;;;;;;;5.90;3.33;;;;;;;11.50;100.00;98860.75;8325939;28;20041;-61
2023/10/25 07:11:52;;;;;;;6.97;2.97;;;;;;;11.62;100.00;98860.09;8344917;28;20173;-61
2023/10/25 07:15:54;;;;;;;6.63;3.25;;;;;;;11.78;100.00;98842.81;8335670;28;20592;-61
2023/10/25 07:19:54;;;;;;;8.10;2.40;;;;;;;11.88;100.00;98843.34;8334248;28;20128;-62
2023/10/25 07:23:55;;;;;;;3.83;1.92;;;;;;;11.84;100.00;98829.34;8336556;28;20033;-61
2023/10/25 07:27:55;;;;;;;5.43;2.05;;;;;;;11.80;100.00;98814.53;8343967;28;20511;-61
2023/10/25 07:31:56;;;;;;;5.93;2.00;;;;;;;11.76;100.00;98797.00;8345915;28;20040;-62
2023/10/25 07:35:56;;;;;;;10.57;2.33;;;;;;;11.80;100.00;98787.44;8340917;28;20403;-61
2023/10/25 07:39:57;;;;;;;7.38;2.33;;;;;;;11.87;100.00;98772.09;8342885;28;20116;-62
2023/10/25 07:43:58;;;;;;;4.20;2.25;;;;;;;12.03;100.00;98775.59;8343628;28;20037;-61
2023/10/25 07:47:58;;;;;;;4.60;2.63;;;;;;;12.13;100.00;98781.56;8339547;28;20048;-61
2023/10/25 07:51:58;;;;;;;5.30;2.45;;;;;;;12.22;100.00;98772.25;8340017;28;20048;-62
2023/10/25 07:56:03;;;;;;;4.72;2.33;;;;;;;12.29;100.00;98770.47;8342975;28;20044;-61
2023/10/25 08:00:04;;;;;;;7.63;2.42;;;;;;;12.33;100.00;98771.75;8342413;28;20067;-61
2023/10/25 08:04:15;;;;;;;5.70;2.28;;;;;;;12.38;100.00;98774.72;8342000;28;20652;-59
2023/10/25 08:08:16;;;;;;;7.30;2.60;;;;;;;12.39;100.00;98754.72;8322464;28;20060;-59
2023/10/25 08:12:17;;;;;;;2.80;2.17;;;;;;;12.41;100.00;98748.06;8340876;28;20447;-58
2023/10/25 08:16:17;;;;;;;8.93;3.53;;;;;;;12.49;100.00;98730.81;8342343;28;20041;-61
2023/10/25 08:20:18;;;;;;;5.85;2.42;;;;;;;12.44;100.00;98717.03;8338287;28;20041;-63
2023/10/25 08:24:18;;;;;;;5.45;2.75;;;;;;;12.38;100.00;98715.13;8340270;28;20091;-60
2023/10/25 08:28:19;;;;;;;5.85;3.15;;;;;;;12.31;100.00;98720.47;8339865;28;20045;-60
2023/10/25 08:32:20;;;;;;;5.38;2.20;;;;;;;12.34;100.00;98702.97;8341547;28;20069;-61
2023/10/25 08:36:21;;;;;;;8.60;2.83;;;;;;;12.39;100.00;98690.53;8340597;28;20526;-61
2023/10/25 08:40:25;;;;;;;3.80;3.03;;;;;;;12.56;100.00;98691.06;8339632;28;20095;-62
2023/10/25 08:44:25;;;;;;;5.68;2.33;;;;;;;12.69;100.00;98693.88;8340330;28;20099;-61
2023/10/25 08:48:26;;;;;;;5.70;2.42;;;;;;;12.81;100.00;98697.72;8337675;28;20555;-61
2023/10/25 08:52:26;;;;;;;4.15;2.03;;;;;;;12.90;100.00;98699.22;8340893;28;20167;-62
2023/10/25 08:56:27;;;;;;;5.10;2.05;;;;;;;12.91;100.00;98673.78;8321621;28;20450;-58
2023/10/25 09:00:30;;;;;;;8.15;2.17;;;;;;;12.95;100.00;98677.75;8341850;28;20063;-59
2023/10/25 09:04:30;;;;;;;4.43;2.08;;;;;;;12.93;100.00;98666.28;8338398;28;20409;-58
2023/10/25 09:08:32;;;;;;;4.53;1.55;;;;;;;12.93;100.00;98650.00;8340578;28;20175;-59
2023/10/25 09:12:32;;;;;;;5.78;1.70;;;;;;;12.94;100.00;98646.25;8338467;28;20029;-58
2023/10/25 09:16:33;;;;;;;4.93;2.28;;;;;;;13.04;100.00;98635.88;8338829;28;20067;-58
2023/10/25 09:20:34;;;;;;;2.30;1.33;;;;;;;13.16;100.00;98639.69;8337384;28;20566;-58
2023/10/25 09:24:48;;;;;;;2.20;1.20;;;;;;;13.13;100.00;98634.66;8337805;28;20486;-58
2023/10/25 09:28:52;;;;;;;6.03;1.90;;;;;;;13.17;100.00;98619.66;8336757;28;20396;-58
2023/10/25 09:32:53;;;;;;;;;;;;;;;13.20;100.00;98616.53;8341336;28;20064;-59
2023/10/25 09:36:53;;;;;;;2.83;1.50;;;;;;;13.21;100.00;98621.75;8337422;28;19916;-60
2023/10/25 09:40:56;;;;;;;2.20;1.55;;;;;;;13.25;100.00;98597.78;8337869;28;20038;-58
2023/10/25 09:45:01;;;;;;;5.18;1.60;;;;;;;13.39;100.00;98583.22;8321697;28;20078;-59
2023/10/25 09:49:06;;;;;;;2.30;1.10;;;;;;;13.50;98.78;98577.16;8331676;28;20045;-59
2023/10/25 09:53:11;;;;;;;3.17;1.25;;;;;;;13.54;98.10;98589.28;8339570;28;20040;-60
2023/10/25 09:57:13;;;;;;;4.38;1.88;;;;;;;13.52;98.46;98567.78;8336371;28;20048;-60
2023/10/25 10:01:14;;;;;;;4.45;1.38;;;;;;;13.57;96.80;98567.13;8342005;28;20042;-60
2023/10/25 10:05:25;;;;;;;2.72;1.33;;;;;;;13.54;96.81;98565.69;8334525;28;20354;-60
2023/10/25 10:09:51;;;;;;;2.13;1.33;;;;;;;13.41;98.02;98552.09;8336521;28;20556;-60
2023/10/25 10:14:31;;;;;;;3.25;1.58;;;;;;;13.19;100.00;98552.47;8328626;28;20451;-59
2023/10/25 10:18:34;;;;;;;2.80;1.23;;;;;;;13.03;100.00;98536.56;8334632;28;20049;-59
2023/10/25 10:22:35;;;;;;;8.55;1.77;;;;;;;12.88;100.00;98541.28;8337670;28;20618;-58
2023/10/25 10:26:51;;;;;;;5.78;1.80;;;;;;;12.67;100.00;98546.81;8335893;28;20329;-60
2023/10/25 10:30:54;;;;;;;2.30;1.77;;;;;;;12.56;100.00;98517.59;8338263;28;20065;-59
2023/10/25 10:34:56;;;;;;;4.00;2.28;;;;;;;12.51;100.00;98517.38;8327364;28;20128;-62
2023/10/25 10:39:14;;;;;;;2.72;2.08;;;;;;;12.46;100.00;98495.44;8333816;28;20033;-61
2023/10/25 10:43:14;;;;;;;6.18;2.67;;;;;;;12.45;100.00;98488.34;8335279;28;20518;-62
2023/10/25 10:47:19;;;;;;;6.93;2.63;;;;;;;12.49;100.00;98489.63;8337730;28;20372;-61
2023/10/25 10:51:19;;;;;;;4.22;2.30;;;;;;;12.45;100.00;98482.94;8334508;28;20124;-62
2023/10/25 10:55:21;;;;;;;5.25;2.58;;;;;;;12.44;100.00;98473.16;8336552;28;20041;-61
2023/10/25 10:59:24;;;;;;;4.57;2.95;;;;;;;12.49;100.00;98448.97;8325208;28;20037;-61
2023/10/25 11:03:27;;;;;;;6.78;2.40;;;;;;;12.49;100.00;98454.38;8335900;28;20125;-61
2023/10/25 11:07:27;;;;;;;4.50;2.70;;;;;;;12.58;100.00;98450.47;8337792;28;20131;-60
2023/10/25 11:11:29;;;;;;;4.85;2.75;;;;;;;12.63;100.00;98443.38;8303973;28;20055;-61
2023/10/25 11:15:30;;;;;;;3.92;2.60;;;;;;;12.53;100.00;98439.41;8303283;28;20041;-61
2023/10/25 11:19:33;;;;;;;2.88;2.58;;;;;;;12.52;100.00;98421.47;8301256;28;20049;-58
2023/10/25 11:23:34;;;;;;;3.85;2.80;;;;;;;12.60;100.00;98421.28;8304339;28;20548;-59
2023/10/25 11:27:35;;;;;;;4.53;2.80;;;;;;;12.67;100.00;98412.13;8302076;28;20479;-58
2023/10/25 11:31:35;;;;;;;7.95;3.55;;;;;;;12.58;100.00;98415.22;8304445;28;20037;-58
2023/10/25 11:35:41;;;;;;;3.50;2.65;;;;;;;12.70;100.00;98402.75;8284747;28;20092;-58
2023/10/25 11:40:02;;;;;;;3.28;2.47;;;;;;;12.74;100.00;98401.28;8302630;28;20041;-60
2023/10/25 11:44:02;;;;;;;3.65;2.50;;;;;;;12.83;100.00;98389.19;8291856;28;20101;-58
2023/10/25 11:48:04;;;;;;;4.43;2.42;;;;;;;12.85;100.00;98371.72;8300931;28;20476;-60
2023/10/25 11:52:05;;;;;;;4.30;2.92;;;;;;;12.86;100.00;98372.53;8301041;28;20049;-60
2023/10/25 11:56:06;;;;;;;4.93;2.33;;;;;;;12.85;100.00;98365.44;8304232;28;20416;-60
2023/10/25 12:00:10;;;;;;;3.25;2.30;;;;;;;12.94;100.00;98364.19;8300282;28;20451;-61
2023/10/25 12:04:13;;;;;;;3.42;2.45;;;;;;;12.89;100.00;98339.56;8298778;28;20116;-60
2023/10/25 12:08:14;;;;;;;4.53;2.10;;;;;;;13.03;100.00;98341.28;8299379;28;20125;-61
2023/10/25 12:12:15;;;;;;;2.40;2.03;;;;;;;12.98;100.00;98349.16;8304519;28;20067;-61
2023/10/25 12:16:19;;;;;;;4.97;2.10;;;;;;;13.06;100.00;98340.84;8304609;28;20107;-61
2023/10/25 12:20:20;;;;;;;3.70;1.90;;;;;;;13.02;100.00;98339.63;8303363;28;20097;-60
2023/10/25 12:24:22;;;;;;;3.22;2.50;;;;;;;12.97;100.00;98336.66;8292928;28;20048;-61
2023/10/25 12:28:23;;;;;;;5.80;2.80;;;;;;;13.02;100.00;98331.47;8303752;28;20125;-61
2023/10/25 12:32:24;;;;;;;7.70;2.92;;;;;;;13.11;100.00;98322.06;8306676;28;20500;-61
2023/10/25 12:36:24;;;;;;;3.80;2.22;;;;;;;13.16;100.00;98314.13;8306191;28;20424;-58
2023/10/25 12:40:25;;;;;;;3.88;2.33;;;;;;;13.10;100.00;98304.13;8302281;28;20139;-59
2023/10/25 12:44:26;;;;;;;15.63;8.38;;;;;;;13.01;100.00;98311.66;8302477;28;20054;-58
2023/10/25 12:48:26;;;;;;;4.07;2.53;;;;;;;13.01;100.00;98305.38;8302580;28;20042;-58
2023/10/25 12:52:26;;;;;;;4.60;2.70;;;;;;;13.04;100.00;98299.53;8304656;28;20034;-58
2023/10/25 12:56:27;;;;;;;4.28;2.50;;;;;;;13.02;100.00;98280.75;8303908;28;20045;-62
2023/10/25 13:00:28;;;;;;;4.45;2.70;;;;;;;13.07;100.00;98274.72;8307989;28;20034;-62
2023/10/25 13:04:28;;;;;;;4.38;2.70;;;;;;;13.04;100.00;98272.41;8302457;28;20042;-62
2023/10/25 13:08:30;;;;;;;4.03;2.35;;;;;;;13.09;100.00;98259.88;8304068;28;20335;-60
2023/10/25 13:12:33;;;;;;;2.63;1.98;;;;;;;13.08;100.00;98254.66;8284402;28;20136;-60
2023/10/25 13:16:33;;;;;;;4.32;2.85;;;;;;;13.05;100.00;98249.69;8301440;28;20042;-58
2023/10/25 13:20:34;;;;;;;4.53;2.67;;;;;;;13.02;100.00;98242.78;8305048;28;20053;-58
2023/10/25 13:24:34;;;;;;;4.25;2.80;;;;;;;13.06;100.00;98237.78;8302281;28;20400;-57
2023/10/25 13:28:35;;;;;;;4.68;2.95;;;;;;;13.09;100.00;98242.78;8302438;28;20088;-58
2023/10/25 13:32:35;;;;;;;6.85;2.40;;;;;;;13.12;100.00;98220.66;8303392;28;20068;-58
2023/10/25 13:36:37;;;;;;;5.95;2.35;;;;;;;13.15;100.00;98225.66;8305106;28;20038;-59
2023/10/25 13:40:38;;;;;;;4.47;2.80;;;;;;;13.17;100.00;98223.56;8302555;28;20050;-56
2023/10/25 13:44:39;;;;;;;4.00;2.75;;;;;;;13.21;100.00;98220.19;8287869;28;20049;-59
2023/10/25 13:48:41;;;;;;;5.72;2.50;;;;;;;13.27;100.00;98219.34;8300620;28;20033;-56
2023/10/25 13:52:41;;;;;;;3.05;2.20;;;;;;;13.33;100.00;98217.69;8305213;28;20072;-57
2023/10/25 13:56:42;;;;;;;6.53;2.80;;;;;;;13.37;100.00;98208.91;8301032;28;20044;-59
2023/10/25 14:00:42;;;;;;;5.82;2.70;;;;;;;13.40;100.00;98202.19;8304759;28;20458;-60
2023/10/25 14:04:43;;;;;;;2.65;2.15;;;;;;;13.43;100.00;98199.06;8303435;28;20425;-59
2023/10/25 14:08:44;;;;;;;2.95;2.38;;;;;;;13.48;100.00;98199.25;8301003;28;20042;-62
2023/10/25 14:12:45;;;;;;;6.00;3.05;;;;;;;13.62;100.00;98189.97;8303365;28;20129;-61
2023/10/25 14:16:45;;;;;;;2.70;2.10;;;;;;;13.64;100.00;98193.31;8300783;28;20042;-61
2023/10/25 14:20:45;;;;;;;4.47;2.67;;;;;;;13.69;100.00;98185.34;8284853;28;20045;-61
2023/10/25 14:24:46;;;;;;;2.80;2.15;;;;;;;13.64;100.00;98177.03;8302411;28;20064;-61
2023/10/25 14:28:46;;;;;;;3.70;2.28;;;;;;;13.61;100.00;98172.03;8300555;28;20038;-60
2023/10/25 14:32:47;;;;;;;5.07;3.20;;;;;;;13.59;100.00;98163.28;8301956;28;20458;-60
2023/10/25 14:36:47;;;;;;;7.13;3.88;;;;;;;13.63;100.00;98159.91;8299990;28;20034;-60
2023/10/25 14:40:48;;;;;;;6.45;3.47;;;;;;;13.69;100.00;98147.34;8301708;28;20038;-60
2023/10/25 14:44:48;;;;;;;7.90;3.55;;;;;;;13.76;100.00;98140.81;8301203;28;20033;-60
2023/10/25 14:48:49;;;;;;;8.85;3.72;;;;;;;13.77;100.00;98144.38;8298612;28;20048;-60
2023/10/25 14:52:50;;;;;;;5.80;2.90;;;;;;;13.84;100.00;98134.28;8299338;28;20034;-60
2023/10/25 14:56:52;;;;;;;3.83;2.60;;;;;;;13.88;100.00;98136.34;8300189;28;20365;-60
2023/10/25 15:00:52;;;;;;;6.50;3.80;;;;;;;13.93;100.00;98149.28;8301480;28;20480;-59
2023/10/25 15:04:53;;;;;;;5.32;3.38;;;;;;;13.95;100.00;98149.88;8301153;28;20479;-60
2023/10/25 15:08:55;;;;;;;4.55;2.10;;;;;;;13.98;100.00;98146.75;8300155;28;20189;-61
2023/10/25 15:12:55;;;;;;;4.28;2.53;;;;;;;13.97;100.00;98139.66;8301251;28;20107;-61
2023/10/25 15:16:56;;;;;;;5.82;2.65;;;;;;;13.96;100.00;98126.28;8297760;28;20095;-61
2023/10/25 15:20:56;;;;;;;5.72;3.20;;;;;;;13.98;100.00;98124.16;8299424;28;20044;-63
2023/10/25 15:24:57;;;;;;;6.57;2.78;;;;;;;13.97;100.00;98123.34;8298763;28;20040;-62
2023/10/25 15:28:57;;;;;;;4.22;2.97;;;;;;;13.99;100.00;98121.22;8296239;28;20069;-62
2023/10/25 15:33:02;;;;;;;4.80;3.15;;;;;;;14.04;100.00;98112.41;8299312;28;20111;-62
2023/10/25 15:37:03;;;;;;;4.78;2.80;;;;;;;14.06;100.00;98118.47;8299219;28;20268;-61
2023/10/25 15:41:20;;;;;;;4.60;2.80;;;;;;;14.06;100.00;98115.75;8300945;28;20052;-61
2023/10/25 15:45:20;;;;;;;5.68;3.85;;;;;;;14.05;100.00;98104.03;8300739;28;20048;-60
2023/10/25 15:49:21;;;;;;;5.65;4.00;;;;;;;14.10;100.00;98117.81;8282958;28;20045;-62
2023/10/25 15:53:21;;;;;;;6.43;4.15;;;;;;;14.12;100.00;98112.97;8309220;28;20037;-62
2023/10/25 15:57:22;;;;;;;4.15;2.58;;;;;;;14.14;100.00;98110.88;8307533;28;20093;-61
2023/10/25 16:01:22;;;;;;;5.78;3.40;;;;;;;14.12;100.00;98121.13;8309386;28;20044;-61
2023/10/25 16:05:22;;;;;;;5.78;4.00;;;;;;;14.09;100.00;98109.88;8304643;28;20037;-62
2023/10/25 16:09:23;;;;;;;6.13;4.40;;;;;;;14.08;100.00;98113.63;8307615;28;20133;-58
2023/10/25 16:13:23;;;;;;;6.55;4.38;;;;;;;14.07;100.00;98110.09;8307044;28;20076;-58
2023/10/25 16:17:25;;;;;;;5.22;3.50;;;;;;;14.05;100.00;98109.47;8307194;28;20104;-59
2023/10/25 16:21:25;;;;;;;6.40;4.70;;;;;;;14.09;100.00;98107.97;8302634;28;20049;-58
2023/10/25 16:25:26;;;;;;;8.60;5.53;;;;;;;14.07;100.00;98107.38;8304257;28;20056;-58
2023/10/25 16:29:29;;;;;;;9.88;7.55;;;;;;;14.03;100.00;98100.72;8304619;28;20061;-59
2023/10/25 16:33:30;;;;;;;10.45;6.80;;;;;;;14.00;100.00;98105.78;8306650;28;20551;-59
2023/10/25 16:37:31;;;;;;;5.13;4.50;;;;;;;14.02;100.00;98093.63;8305293;28;20168;-59
2023/10/25 16:41:31;;;;;;;8.50;5.45;;;;;;;14.02;100.00;98111.78;8303496;28;20041;-60
2023/10/25 16:45:32;;;;;;;8.80;4.30;;;;;;;14.04;100.00;98107.81;8306366;28;20057;-58
2023/10/25 16:49:33;;;;;;;5.40;4.57;;;;;;;14.04;100.00;98112.41;8303811;28;20041;-61
2023/10/25 16:53:33;;;;;;;5.22;4.18;;;;;;;14.06;100.00;98122.00;8301710;28;20140;-61
2023/10/25 16:57:34;;;;;;;4.72;3.67;;;;;;;14.12;100.00;98115.69;8303802;28;20052;-61
2023/10/25 17:01:34;;;;;;;6.32;2.90;;;;;;;14.20;100.00;98130.88;8306580;28;20030;-60
2023/10/25 17:05:34;;;;;;;5.10;2.40;;;;;;;14.18;100.00;98125.66;8307125;28;20124;-60
2023/10/25 17:09:35;;;;;;;4.40;2.10;;;;;;;14.17;100.00;98134.88;8303524;28;20107;-62
2023/10/25 17:13:37;;;;;;;3.25;2.10;;;;;;;14.14;100.00;98139.91;8306317;28;20041;-63
2023/10/25 17:17:38;;;;;;;2.63;2.40;;;;;;;14.20;100.00;98147.19;8290014;28;20063;-63
2023/10/25 17:21:38;;;;;;;5.15;2.63;;;;;;;14.36;100.00;98155.66;8303430;28;20040;-61
2023/10/25 17:25:39;;;;;;;6.30;4.40;;;;;;;14.43;100.00;98161.88;8302947;28;20037;-61
2023/10/25 17:29:39;;;;;;;5.28;4.57;;;;;;;14.38;100.00;98169.03;8303605;28;20124;-61
2023/10/25 17:33:40;;;;;;;7.18;5.00;;;;;;;14.43;100.00;98166.47;8304997;28;20133;-62
2023/10/25 17:37:40;;;;;;;6.72;4.28;;;;;;;14.44;100.00;98174.41;8306000;28;20406;-61
2023/10/25 17:41:41;;;;;;;6.43;4.03;;;;;;;14.49;100.00;98173.75;8303140;28;20033;-61
2023/10/25 17:45:42;;;;;;;7.88;4.30;;;;;;;14.55;100.00;98179.09;8303599;28;20553;-61
2023/10/25 17:49:43;;;;;;;4.43;3.85;;;;;;;14.59;100.00;98177.63;8301895;28;20551;-61
2023/10/25 17:53:43;;;;;;;6.72;4.35;;;;;;;14.57;100.00;98187.03;8299086;28;20400;-61
2023/10/25 17:57:45;;;;;;;9.75;4.50;;;;;;;14.57;100.00;98187.03;8303839;28;20033;-61
2023/10/25 18:01:45;;;;;;;6.22;4.55;;;;;;;14.51;100.00;98191.50;8303000;28;20675;-61
2023/10/25 18:05:46;;;;;;;5.55;4.45;;;;;;;14.50;100.00;98195.28;8302908;28;20037;-61
2023/10/25 18:09:46;;;;;;;6.15;4.50;;;;;;;14.47;100.00;98203.88;8304292;28;20687;-62
2023/10/25 18:13:49;;;;;;;7.22;4.85;;;;;;;14.43;100.00;98199.94;8304033;28;20133;-62
2023/10/25 18:17:49;;;;;;;8.90;5.13;;;;;;;14.39;100.00;98209.56;8300777;28;20054;-60
2023/10/25 18:21:51;;;;;;;5.97;3.92;;;;;;;14.35;100.00;98221.94;8301914;28;20100;-61
2023/10/25 18:25:52;;;;;;;7.35;4.00;;;;;;;14.33;100.00;98225.94;8299698;28;20042;-60
2023/10/25 18:29:53;;;;;;;7.15;3.10;;;;;;;14.23;100.00;98226.44;8298352;28;20041;-59
2023/10/25 18:33:53;;;;;;;4.00;2.50;;;;;;;14.26;100.00;98225.16;8319315;28;20041;-59
2023/10/25 18:37:54;;;;;;;2.83;2.25;;;;;;;14.26;100.00;98228.69;8322706;28;20541;-59
2023/10/25 18:41:55;;;;;;;3.83;2.38;;;;;;;14.21;100.00;98227.66;8301264;28;20037;-59